Time;durP1;ratioP1;P1;durP2;ratioP2;P2;SDS_P1;SDS_P2;PMS_P1;PMS_P2;Temp;Humidity;BMP_temperature;BMP_pressure;BME280_temperature;BME280_humidity;BME280_pressure;Samples;Min_cycle;Max_cycle;Signal;HPM_P1;HPM_P2
2021/06/07 00:01:43;;;;;;;0.10;0.10;;;;;;;18.40;51.63;102580.25;5069254;28;20033;-81
2021/06/07 00:04:11;;;;;;;0.10;0.10;;;;;;;18.38;52.64;102581.22;5068736;28;20021;-81
2021/06/07 00:06:38;;;;;;;0.10;0.10;;;;;;;18.37;52.40;102574.97;5069270;28;20033;-81
2021/06/07 00:09:08;;;;;;;0.10;0.10;;;;;;;18.36;52.57;102583.94;5069002;28;20112;-81
2021/06/07 00:11:36;;;;;;;0.10;0.10;;;;;;;18.31;52.84;102579.63;5068606;28;20028;-81
2021/06/07 00:14:04;;;;;;;0.10;0.10;;;;;;;18.31;52.78;102585.00;5068654;28;20040;-81
2021/06/07 00:16:31;;;;;;;0.03;0.03;;;;;;;18.29;51.92;102582.34;5068116;28;20040;-81
2021/06/07 00:18:58;;;;;;;0.10;0.10;;;;;;;18.29;51.68;102585.00;5068693;28;20086;-81
2021/06/07 00:21:28;;;;;;;0.10;0.10;;;;;;;18.24;52.61;102590.53;5068838;28;20052;-81
2021/06/07 00:23:56;;;;;;;0.00;0.00;;;;;;;18.19;53.88;102587.03;5068582;28;20039;-81
2021/06/07 00:26:23;;;;;;;0.10;0.10;;;;;;;18.14;53.65;102586.28;5068492;28;20024;-81
2021/06/07 00:28:50;;;;;;;0.10;0.10;;;;;;;18.17;51.68;102582.63;5068564;28;20029;-81
2021/06/07 00:31:16;;;;;;;0.10;0.10;;;;;;;18.16;52.90;102583.56;5068356;28;20020;-81
2021/06/07 00:33:43;;;;;;;0.10;0.10;;;;;;;18.16;52.30;102578.22;5068464;28;20044;-81
2021/06/07 00:36:12;;;;;;;0.32;0.32;;;;;;;18.13;52.24;102576.50;5054234;28;20029;-81
2021/06/07 00:38:38;;;;;;;0.03;0.03;;;;;;;18.11;52.43;102573.81;5055040;28;20029;-81
2021/06/07 00:41:08;;;;;;;0.00;0.00;;;;;;;18.10;53.72;102581.91;5055381;28;20048;-81
2021/06/07 00:43:36;;;;;;;0.17;0.17;;;;;;;18.06;53.26;102574.88;5054990;28;20071;-81
2021/06/07 00:46:04;;;;;;;0.00;0.00;;;;;;;18.04;51.93;102572.19;5055131;28;20056;-81
2021/06/07 00:48:30;;;;;;;0.08;0.08;;;;;;;17.99;54.15;102571.44;5054954;28;20508;-81
2021/06/07 00:50:59;;;;;;;0.10;0.10;;;;;;;17.99;53.82;102573.25;5053328;28;20468;-81
2021/06/07 00:53:26;;;;;;;0.10;0.10;;;;;;;17.97;54.09;102565.25;5055197;28;20384;-81
2021/06/07 00:56:00;;;;;;;0.00;0.00;;;;;;;17.97;53.70;102575.97;5054673;28;20112;-81
2021/06/07 00:58:31;;;;;;;0.03;0.03;;;;;;;17.93;53.30;102575.13;5054023;28;20396;-81
2021/06/07 01:00:59;;;;;;;0.10;0.10;;;;;;;17.90;53.97;102571.63;5054767;28;20468;-80
2021/06/07 01:03:27;;;;;;;0.10;0.10;;;;;;;17.88;53.73;102576.13;5054644;28;20036;-81
2021/06/07 01:05:54;;;;;;;0.10;0.10;;;;;;;17.86;53.43;102572.63;5054885;28;20036;-81
2021/06/07 01:08:22;;;;;;;0.10;0.10;;;;;;;17.83;55.06;102567.31;5054398;28;20029;-81
2021/06/07 01:10:49;;;;;;;0.43;0.43;;;;;;;17.82;54.50;102570.91;5054474;28;20524;-81
2021/06/07 01:13:17;;;;;;;0.05;0.05;;;;;;;17.76;54.69;102578.19;5054453;28;20055;-81
2021/06/07 01:15:44;;;;;;;0.10;0.10;;;;;;;17.74;54.12;102571.94;5054592;28;20025;-81
2021/06/07 01:18:12;;;;;;;0.08;0.08;;;;;;;17.73;54.15;102572.91;5054547;28;20102;-81
2021/06/07 01:20:39;;;;;;;0.10;0.10;;;;;;;17.69;54.13;102571.19;5054289;28;20029;-81
2021/06/07 01:23:06;;;;;;;0.00;0.00;;;;;;;17.68;54.28;102574.78;5054256;28;20068;-81
2021/06/07 01:25:36;;;;;;;0.10;0.10;;;;;;;17.66;55.24;102570.38;5054153;28;20419;-81
2021/06/07 01:28:05;;;;;;;0.10;0.10;;;;;;;17.65;54.86;102572.19;5054810;28;20057;-81
2021/06/07 01:30:35;;;;;;;0.10;0.10;;;;;;;17.65;55.32;102566.81;5054607;28;20036;-81
2021/06/07 01:33:04;;;;;;;0.22;0.22;;;;;;;17.62;55.32;102565.09;5043348;28;20021;-81
2021/06/07 01:35:30;;;;;;;0.10;0.10;;;;;;;17.62;54.75;102565.09;5054119;28;20029;-81
2021/06/07 01:37:57;;;;;;;0.03;0.03;;;;;;;17.64;55.20;102562.38;5054206;28;20025;-81
2021/06/07 01:40:29;;;;;;;0.00;0.00;;;;;;;17.63;55.21;102563.28;5054249;28;20103;-81
2021/06/07 01:42:56;;;;;;;0.00;0.00;;;;;;;17.59;55.93;102566.94;5053685;28;20032;-81
2021/06/07 01:45:24;;;;;;;0.00;0.00;;;;;;;17.55;55.16;102557.22;5051576;28;20082;-81
2021/06/07 01:47:53;;;;;;;0.00;0.00;;;;;;;17.52;54.72;102562.63;5051152;28;20384;-81
2021/06/07 01:50:20;;;;;;;0.10;0.10;;;;;;;17.51;54.75;102564.44;5053760;28;20116;-81
2021/06/07 01:52:48;;;;;;;0.10;0.10;;;;;;;17.49;55.22;102558.22;5053620;28;20033;-81
2021/06/07 01:55:16;;;;;;;0.00;0.00;;;;;;;17.48;55.42;102555.59;5053903;28;20033;-81
2021/06/07 01:57:44;;;;;;;1.55;1.27;;;;;;;17.45;55.87;102562.75;5053796;28;20021;-81
2021/06/07 02:00:16;;;;;;;0.10;0.10;;;;;;;17.42;55.26;102557.47;5053376;28;20018;-81
2021/06/07 02:02:44;;;;;;;0.00;0.00;;;;;;;17.41;55.45;102560.22;5053590;28;20036;-80
2021/06/07 02:05:14;;;;;;;0.73;0.73;;;;;;;17.39;55.34;102560.22;5053516;28;20053;-81
2021/06/07 02:07:46;;;;;;;0.10;0.10;;;;;;;17.43;55.78;102561.03;5053755;28;20032;-81
2021/06/07 02:10:14;;;;;;;0.05;0.05;;;;;;;17.40;55.11;102556.63;5053251;28;20025;-81
2021/06/07 02:12:41;;;;;;;0.00;0.00;;;;;;;17.38;55.43;102558.44;5053428;28;20074;-81
2021/06/07 02:15:09;;;;;;;0.10;0.10;;;;;;;17.40;55.19;102550.41;5053275;28;20025;-81
2021/06/07 02:17:36;;;;;;;0.00;0.00;;;;;;;17.39;55.33;102562.88;5053249;28;20021;-81
2021/06/07 02:20:06;;;;;;;0.00;0.00;;;;;;;17.39;55.55;102557.53;5053239;28;20071;-81
2021/06/07 02:22:37;;;;;;;0.10;0.10;;;;;;;17.39;55.14;102557.53;5053137;28;20029;-81
2021/06/07 02:25:05;;;;;;;0.10;0.10;;;;;;;17.36;55.69;102559.41;5053540;28;20399;-81
2021/06/07 02:27:33;;;;;;;0.05;0.05;;;;;;;17.35;55.77;102563.00;5052994;28;20036;-81
2021/06/07 02:30:00;;;;;;;0.05;0.05;;;;;;;17.35;55.43;102555.84;5053085;28;20119;-81
2021/06/07 02:32:26;;;;;;;0.00;0.00;;;;;;;17.31;55.41;102551.47;5066923;28;20025;-81
2021/06/07 02:34:53;;;;;;;0.10;0.10;;;;;;;17.29;55.48;102555.97;5053164;28;20134;-81
2021/06/07 02:37:19;;;;;;;0.10;0.10;;;;;;;17.24;56.37;102555.19;5052932;28;20483;-81
2021/06/07 02:39:46;;;;;;;0.10;0.10;;;;;;;17.21;56.28;102564.19;5052963;28;20033;-81
2021/06/07 02:42:13;;;;;;;0.10;0.10;;;;;;;17.20;55.77;102564.22;5053044;28;20036;-81
2021/06/07 02:44:40;;;;;;;0.00;0.00;;;;;;;17.15;56.60;102561.63;5052892;28;20033;-81
2021/06/07 02:47:07;;;;;;;0.00;0.00;;;;;;;17.13;57.13;102558.97;5052837;28;20384;-81
2021/06/07 02:49:33;;;;;;;0.05;0.05;;;;;;;17.13;56.14;102563.44;5052585;28;20043;-81
2021/06/07 02:51:59;;;;;;;0.10;0.10;;;;;;;17.08;57.02;102568.88;5052610;28;20075;-81
2021/06/07 02:54:26;;;;;;;0.00;0.00;;;;;;;17.04;56.53;102567.19;5047997;28;20060;-81
2021/06/07 02:56:52;;;;;;;0.00;0.00;;;;;;;17.03;56.51;102573.44;5052603;28;20031;-81
2021/06/07 02:59:19;;;;;;;0.40;0.40;;;;;;;17.05;56.76;102570.75;5052195;28;20029;-81
2021/06/07 03:01:45;;;;;;;0.00;0.00;;;;;;;17.04;56.46;102574.34;5052781;28;20036;-81
2021/06/07 03:04:12;;;;;;;0.10;0.10;;;;;;;17.03;56.59;102570.75;5052426;28;20120;-81
2021/06/07 03:06:38;;;;;;;0.10;0.10;;;;;;;17.04;56.55;102572.53;5052458;28;20465;-81
2021/06/07 03:09:05;;;;;;;0.00;0.00;;;;;;;17.02;57.18;102574.34;5052509;28;20100;-81
2021/06/07 03:11:31;;;;;;;0.00;0.00;;;;;;;17.01;56.21;102567.25;5052226;28;20040;-81
2021/06/07 03:13:58;;;;;;;0.03;0.03;;;;;;;17.02;56.97;102573.47;5052409;28;20028;-81
2021/06/07 03:16:24;;;;;;;0.00;0.00;;;;;;;17.00;56.35;102573.53;5052385;28;20025;-81
2021/06/07 03:18:50;;;;;;;0.10;0.10;;;;;;;17.00;56.74;102576.19;5051920;28;20460;-81
2021/06/07 03:21:18;;;;;;;0.00;0.00;;;;;;;17.00;56.07;102581.56;5052030;28;20527;-81
2021/06/07 03:23:45;;;;;;;0.10;0.10;;;;;;;16.99;57.12;102577.09;5051580;28;20458;-81
2021/06/07 03:26:11;;;;;;;0.13;0.13;;;;;;;16.99;56.00;102574.44;5051708;28;20139;-81
2021/06/07 03:28:38;;;;;;;0.10;0.10;;;;;;;16.97;57.27;102571.78;5051640;28;20395;-81
2021/06/07 03:31:07;;;;;;;0.10;0.10;;;;;;;16.97;56.87;102568.22;5051965;28;20079;-81
2021/06/07 03:33:34;;;;;;;0.10;0.10;;;;;;;16.97;56.17;102573.56;5052229;28;20037;-81
2021/06/07 03:36:00;;;;;;;0.00;0.00;;;;;;;17.00;56.49;102564.59;5051721;28;20468;-81
2021/06/07 03:38:32;;;;;;;0.10;0.10;;;;;;;16.97;57.43;102570.88;5034065;28;20036;-81
2021/06/07 03:40:59;;;;;;;0.10;0.10;;;;;;;16.98;57.59;102561.94;5051997;28;20400;-81
2021/06/07 03:43:30;;;;;;;0.08;0.08;;;;;;;17.06;56.87;102564.47;5052212;28;20036;-81
2021/06/07 03:45:57;;;;;;;0.10;0.10;;;;;;;17.03;57.45;102570.75;5052015;28;20036;-81
2021/06/07 03:48:24;;;;;;;0.10;0.10;;;;;;;17.03;57.66;102570.75;5052236;28;20036;-81
2021/06/07 03:50:51;;;;;;;0.00;0.00;;;;;;;16.99;57.97;102563.72;5051902;28;20134;-80
2021/06/07 03:53:18;;;;;;;0.40;0.40;;;;;;;16.97;58.22;102563.75;5052063;28;20108;-81
2021/06/07 03:55:45;;;;;;;0.00;0.00;;;;;;;16.96;57.84;102564.66;5051879;28;20037;-81
2021/06/07 03:58:12;;;;;;;0.20;0.20;;;;;;;16.97;57.00;102566.44;5050299;28;20029;-81
2021/06/07 04:00:39;;;;;;;0.00;0.00;;;;;;;16.95;58.09;102570.91;5051922;28;20490;-80
2021/06/07 04:03:07;;;;;;;0.00;0.00;;;;;;;16.92;58.35;102567.41;5051725;28;20056;-81
2021/06/07 04:05:35;;;;;;;0.00;0.00;;;;;;;16.93;57.81;102569.19;5051841;28;20036;-81
2021/06/07 04:08:02;;;;;;;0.00;0.00;;;;;;;16.91;58.19;102577.25;5051927;28;20048;-81
2021/06/07 04:10:29;;;;;;;0.00;0.00;;;;;;;16.90;58.37;102569.22;5053690;28;20021;-81
2021/06/07 04:12:56;;;;;;;0.05;0.05;;;;;;;16.91;58.54;102570.97;5055127;28;20102;-81
2021/06/07 04:15:25;;;;;;;0.10;0.10;;;;;;;16.89;58.48;102573.69;5037198;28;20037;-81
2021/06/07 04:17:53;;;;;;;0.05;0.05;;;;;;;16.91;58.47;102570.97;5055738;28;20048;-81
2021/06/07 04:20:23;;;;;;;0.08;0.08;;;;;;;16.92;57.85;102570.09;5054688;28;20033;-81
2021/06/07 04:22:50;;;;;;;0.00;0.00;;;;;;;16.90;58.70;102579.94;5055381;28;20037;-81
2021/06/07 04:25:19;;;;;;;0.10;0.10;;;;;;;16.93;58.57;102574.53;5055482;28;20032;-81
2021/06/07 04:27:46;;;;;;;0.57;0.57;;;;;;;16.91;58.12;102576.31;5055589;28;20476;-81
2021/06/07 04:30:17;;;;;;;0.00;0.00;;;;;;;16.95;58.59;102573.59;5055343;28;20490;-82
2021/06/07 04:32:45;;;;;;;0.10;0.10;;;;;;;17.00;58.29;102573.53;5055265;28;20032;-81
2021/06/07 04:35:13;;;;;;;0.00;0.00;;;;;;;17.02;57.70;102582.38;5055273;28;20143;-81
2021/06/07 04:37:43;;;;;;;0.00;0.00;;;;;;;17.05;58.06;102574.31;5055122;28;20033;-82
2021/06/07 04:40:11;;;;;;;0.60;0.30;;;;;;;17.11;57.86;102581.34;5053689;28;20147;-81
2021/06/07 04:42:38;;;;;;;0.00;0.00;;;;;;;17.13;57.62;102585.75;5054594;28;20053;-81
2021/06/07 04:45:07;;;;;;;0.10;0.10;;;;;;;17.19;57.97;102582.06;5053577;28;20375;-81
2021/06/07 04:47:33;;;;;;;0.00;0.00;;;;;;;17.21;57.61;102584.69;5048389;28;20384;-81
2021/06/07 04:50:00;;;;;;;0.10;0.10;;;;;;;17.25;57.38;102591.78;5054776;28;20033;-81
2021/06/07 04:52:27;;;;;;;0.00;0.00;;;;;;;17.30;57.66;102584.53;5054753;28;20127;-81
2021/06/07 04:54:53;;;;;;;0.10;0.10;;;;;;;17.36;57.36;102592.44;5054498;28;20028;-81
2021/06/07 04:57:20;;;;;;;0.00;0.00;;;;;;;17.41;57.50;102584.31;5054633;28;20060;-81
2021/06/07 04:59:46;;;;;;;0.43;0.43;;;;;;;17.44;57.26;102585.09;5054323;28;20028;-81
2021/06/07 05:02:12;;;;;;;0.10;0.10;;;;;;;17.43;57.64;102586.06;5054256;28;20116;-81
2021/06/07 05:04:39;;;;;;;0.10;0.10;;;;;;;17.45;56.86;102588.69;5054174;28;20033;-81
2021/06/07 05:07:06;;;;;;;0.85;0.85;;;;;;;17.52;57.17;102586.75;5054376;28;20037;-81
2021/06/07 05:09:32;;;;;;;0.05;0.05;;;;;;;17.57;56.62;102587.53;5052221;28;20171;-81
2021/06/07 05:11:58;;;;;;;0.10;0.10;;;;;;;17.55;57.15;102584.88;5051754;28;20086;-81
2021/06/07 05:14:25;;;;;;;0.10;0.10;;;;;;;17.60;56.69;102587.47;5054371;28;20029;-82
2021/06/07 05:16:51;;;;;;;0.00;0.00;;;;;;;17.63;56.34;102587.41;5054464;28;20388;-83
2021/06/07 05:19:19;;;;;;;0.10;0.10;;;;;;;17.66;56.21;102589.13;5054714;28;20051;-81
2021/06/07 05:21:47;;;;;;;0.10;0.10;;;;;;;17.63;56.14;102590.97;5053908;28;20094;-83
2021/06/07 05:24:13;;;;;;;0.10;0.10;;;;;;;17.74;56.17;102592.53;5054222;28;20033;-82
2021/06/07 05:26:39;;;;;;;0.10;0.10;;;;;;;17.75;55.89;102587.13;5053948;28;20052;-82
2021/06/07 05:29:05;;;;;;;0.00;0.00;;;;;;;17.80;55.89;102584.34;5051756;28;20484;-82
2021/06/07 05:31:31;;;;;;;0.28;0.20;;;;;;;17.82;55.65;102597.72;5048450;28;20055;-82
2021/06/07 05:33:58;;;;;;;0.10;0.10;;;;;;;17.82;55.81;102592.34;5053904;28;20021;-82
2021/06/07 05:36:24;;;;;;;0.00;0.00;;;;;;;17.89;55.63;102597.53;5035879;28;20391;-82
2021/06/07 05:38:50;;;;;;;0.10;0.10;;;;;;;17.90;56.70;102599.31;5053835;28;20023;-81
2021/06/07 05:41:16;;;;;;;0.10;0.10;;;;;;;17.90;56.28;102598.44;5054122;28;20117;-82
2021/06/07 05:43:42;;;;;;;0.00;0.00;;;;;;;17.94;56.03;102603.75;5053051;28;20124;-82
2021/06/07 05:46:08;;;;;;;0.10;0.10;;;;;;;17.98;56.48;102599.19;5053822;28;20025;-83
2021/06/07 05:48:34;;;;;;;0.10;0.10;;;;;;;18.04;55.65;102606.19;5053137;28;20056;-82
2021/06/07 05:51:00;;;;;;;0.00;0.00;;;;;;;18.04;56.81;102603.50;5053727;28;20104;-81
2021/06/07 05:53:26;;;;;;;0.25;0.25;;;;;;;18.17;55.72;102601.41;5054139;28;20714;-82
2021/06/07 05:55:53;;;;;;;0.10;0.10;;;;;;;18.20;55.52;102602.22;5053267;28;20469;-81
2021/06/07 05:58:21;;;;;;;0.10;0.10;;;;;;;18.27;55.84;102603.84;5052858;28;20037;-81
2021/06/07 06:00:53;;;;;;;0.00;0.00;;;;;;;18.31;55.38;102607.34;5051195;28;20025;-79
2021/06/07 06:03:20;;;;;;;0.10;0.10;;;;;;;18.29;55.63;102603.78;5048273;28;20032;-80
2021/06/07 06:05:47;;;;;;;0.00;0.00;;;;;;;18.29;55.58;102608.28;5043656;28;20337;-79
2021/06/07 06:08:13;;;;;;;0.00;0.00;;;;;;;18.38;55.87;102605.38;5052371;28;20460;-79
2021/06/07 06:10:40;;;;;;;0.10;0.10;;;;;;;18.43;55.41;102596.31;5053974;28;20033;-81
2021/06/07 06:13:07;;;;;;;0.05;0.05;;;;;;;18.50;55.44;102598.81;5052292;28;20029;-79
2021/06/07 06:15:33;;;;;;;0.00;0.00;;;;;;;18.52;55.13;102600.56;5053158;28;20025;-80
2021/06/07 06:17:59;;;;;;;0.20;0.20;;;;;;;18.53;55.34;102594.28;5053042;28;20024;-80
2021/06/07 06:20:29;;;;;;;0.10;0.10;;;;;;;18.60;55.36;102597.66;5052954;28;20087;-80
2021/06/07 06:22:56;;;;;;;0.20;0.20;;;;;;;18.62;55.11;102597.63;5052415;28;20032;-80
2021/06/07 06:25:22;;;;;;;0.10;0.10;;;;;;;18.70;55.89;102596.50;5055424;28;20024;-80
2021/06/07 06:27:49;;;;;;;0.00;0.00;;;;;;;18.64;55.93;102599.38;5050586;28;20032;-80
2021/06/07 06:30:21;;;;;;;0.03;0.03;;;;;;;18.81;55.52;102598.03;5032140;28;20391;-80
2021/06/07 06:32:50;;;;;;;0.10;0.10;;;;;;;18.82;56.06;102597.13;5046977;28;20041;-81
2021/06/07 06:35:16;;;;;;;0.10;0.10;;;;;;;18.87;56.17;102590.69;5052749;28;20375;-80
2021/06/07 06:37:44;;;;;;;0.08;0.08;;;;;;;18.91;55.73;102594.19;5052536;28;20028;-80
2021/06/07 06:40:16;;;;;;;0.10;0.10;;;;;;;18.97;55.58;102596.72;5052562;28;20098;-80
2021/06/07 06:42:43;;;;;;;0.13;0.13;;;;;;;18.85;56.93;102588.97;5053104;28;20040;-80
2021/06/07 06:45:10;;;;;;;0.00;0.00;;;;;;;18.97;56.24;102594.03;5052900;28;20498;-80
2021/06/07 06:47:36;;;;;;;0.00;0.00;;;;;;;19.02;56.67;102588.53;5052730;28;20033;-82
2021/06/07 06:50:06;;;;;;;0.30;0.30;;;;;;;19.13;55.96;102596.28;5053236;28;20037;-81
2021/06/07 06:52:32;;;;;;;0.10;0.10;;;;;;;19.20;55.36;102593.41;5052460;28;20460;-81
2021/06/07 06:54:58;;;;;;;0.08;0.08;;;;;;;19.30;55.06;102593.13;5052451;28;20064;-82
2021/06/07 06:57:25;;;;;;;0.10;0.10;;;;;;;19.25;55.22;102593.25;5052567;28;20024;-82
2021/06/07 06:59:51;;;;;;;0.00;0.00;;;;;;;19.32;55.29;102586.78;5041670;28;20021;-79
2021/06/07 07:02:19;;;;;;;0.05;0.05;;;;;;;19.42;55.25;102597.28;5053862;28;20472;-81
2021/06/07 07:04:45;;;;;;;0.13;0.13;;;;;;;19.41;54.86;102588.31;5051178;28;20484;-81
2021/06/07 07:07:11;;;;;;;0.28;0.28;;;;;;;19.46;54.89;102594.44;5053798;28;20077;-79
2021/06/07 07:09:38;;;;;;;0.10;0.10;;;;;;;19.53;54.67;102595.16;5051739;28;20032;-80
2021/06/07 07:12:05;;;;;;;0.10;0.10;;;;;;;19.60;54.57;102596.75;5051058;28;20090;-79
2021/06/07 07:14:32;;;;;;;0.00;0.00;;;;;;;19.66;54.28;102584.91;5051014;28;20044;-80
2021/06/07 07:16:58;;;;;;;0.52;0.47;;;;;;;19.62;54.21;102594.84;5048565;28;20494;-80
2021/06/07 07:19:24;;;;;;;0.10;0.10;;;;;;;19.72;54.24;102606.22;5048916;28;20033;-80
2021/06/07 07:21:50;;;;;;;0.10;0.10;;;;;;;19.75;54.43;102591.78;5053609;28;20035;-80
2021/06/07 07:24:16;;;;;;;0.10;0.10;;;;;;;19.80;53.85;102589.84;5050871;28;20037;-80
2021/06/07 07:26:43;;;;;;;0.00;0.00;;;;;;;19.92;53.67;102594.88;5046991;28;20040;-80
2021/06/07 07:29:09;;;;;;;0.10;0.10;;;;;;;20.00;53.60;102595.53;5047542;28;20013;-79
2021/06/07 07:31:35;;;;;;;0.20;0.20;;;;;;;20.12;53.75;102587.97;5048517;28;20076;-80
2021/06/07 07:34:01;;;;;;;0.00;0.00;;;;;;;20.17;53.63;102589.56;5049331;28;20530;-79
2021/06/07 07:36:27;;;;;;;0.65;0.47;;;;;;;20.10;53.57;102585.34;5053568;28;20053;-79
2021/06/07 07:38:54;;;;;;;0.10;0.10;;;;;;;20.25;53.53;102588.44;5050620;28;20037;-79
2021/06/07 07:41:20;;;;;;;0.10;0.10;;;;;;;20.32;53.46;102584.63;5050729;28;20090;-79
2021/06/07 07:43:47;;;;;;;0.13;0.13;;;;;;;20.33;53.40;102586.38;5051052;28;20250;-79
2021/06/07 07:46:13;;;;;;;0.00;0.00;;;;;;;20.48;53.05;102588.56;5054593;28;20507;-79
2021/06/07 07:48:39;;;;;;;0.10;0.10;;;;;;;20.59;52.45;102593.56;5054607;28;20388;-79
2021/06/07 07:51:06;;;;;;;0.10;0.10;;;;;;;20.61;51.31;102589.03;5055076;28;20044;-80
2021/06/07 07:53:32;;;;;;;0.00;0.00;;;;;;;20.65;52.19;102590.69;5055101;28;20383;-79
2021/06/07 07:55:58;;;;;;;0.00;0.00;;;;;;;20.79;51.64;102583.97;5054759;28;20028;-79
2021/06/07 07:58:25;;;;;;;0.10;0.10;;;;;;;20.89;51.13;102589.91;5054299;28;20025;-79
2021/06/07 08:00:52;;;;;;;0.10;0.10;;;;;;;20.92;51.04;102589.78;5056245;28;20153;-80
2021/06/07 08:03:20;;;;;;;1.58;1.48;;;;;;;20.94;50.44;102583.41;5053685;28;20040;-81
2021/06/07 08:05:46;;;;;;;0.00;0.00;;;;;;;21.08;50.38;102584.72;5057075;28;20385;-79
2021/06/07 08:08:12;;;;;;;0.38;0.38;;;;;;;21.13;50.15;102588.13;5054324;28;20543;-79
2021/06/07 08:10:38;;;;;;;0.43;0.43;;;;;;;21.23;49.51;102581.44;5056098;28;20060;-79
2021/06/07 08:13:05;;;;;;;0.90;0.68;;;;;;;21.33;48.95;102585.56;5051758;28;20037;-79
2021/06/07 08:15:35;;;;;;;0.05;0.05;;;;;;;21.30;48.20;102584.81;5054505;28;20088;-79
2021/06/07 08:18:04;;;;;;;0.10;0.10;;;;;;;21.45;48.17;102573.44;5042734;28;20021;-80
2021/06/07 08:20:31;;;;;;;0.10;0.10;;;;;;;21.50;47.62;102582.22;5060968;28;20032;-80
2021/06/07 08:22:57;;;;;;;0.40;0.28;;;;;;;21.67;47.80;102571.75;5054486;28;20041;-80
2021/06/07 08:25:25;;;;;;;0.10;0.10;;;;;;;21.73;47.06;102571.50;5054478;28;20029;-80
2021/06/07 08:27:51;;;;;;;0.10;0.10;;;;;;;21.76;45.88;102571.41;5054082;28;20438;-81
2021/06/07 08:30:19;;;;;;;0.10;0.10;;;;;;;21.85;46.42;102575.53;5053806;28;20025;-80
2021/06/07 08:32:45;;;;;;;0.03;0.03;;;;;;;21.94;46.35;102573.34;5054669;28;20039;-80
2021/06/07 08:35:12;;;;;;;0.10;0.10;;;;;;;21.95;45.63;102577.78;5036183;28;20033;-81
2021/06/07 08:37:38;;;;;;;0.08;0.08;;;;;;;22.10;46.22;102578.97;5054919;28;20479;-80
2021/06/07 08:40:07;;;;;;;0.10;0.10;;;;;;;22.23;46.42;102568.56;5055675;28;20048;-80
2021/06/07 08:42:37;;;;;;;0.10;0.10;;;;;;;22.33;45.84;102570.88;5063442;28;20041;-80
2021/06/07 08:45:05;;;;;;;0.10;0.10;;;;;;;22.38;46.33;102569.78;5052859;28;20045;-81
2021/06/07 08:47:32;;;;;;;0.10;0.10;;;;;;;22.45;45.01;102571.28;5056413;28;20040;-80
2021/06/07 08:49:59;;;;;;;0.05;0.05;;;;;;;22.53;45.60;102572.75;5056688;28;20526;-80
2021/06/07 08:52:26;;;;;;;0.10;0.10;;;;;;;22.58;45.96;102568.00;5050882;28;20382;-80
2021/06/07 08:54:52;;;;;;;0.03;0.03;;;;;;;22.62;44.34;102567.81;5052646;28;20043;-80
2021/06/07 08:57:19;;;;;;;0.10;0.10;;;;;;;22.76;44.38;102552.84;5052778;28;20036;-80
2021/06/07 08:59:45;;;;;;;0.60;0.60;;;;;;;22.76;44.76;102552.84;5048460;28;20060;-80
2021/06/07 09:02:12;;;;;;;0.28;0.28;;;;;;;22.96;44.52;102556.47;5055860;28;20056;-81
2021/06/07 09:04:53;;;;;;;0.10;0.10;;;;;;;23.07;44.58;102552.31;5061993;28;20028;-86
2021/06/07 09:07:19;;;;;;;0.10;0.10;;;;;;;23.10;44.57;102554.91;5057126;28;20033;-80
2021/06/07 09:10:10;;;;;;;0.10;0.10;;;;;;;23.34;44.13;102553.84;5059193;28;20029;-81
2021/06/07 09:12:36;;;;;;;0.40;0.40;;;;;;;23.25;43.05;102555.16;5049637;28;20548;-80
2021/06/07 09:15:03;;;;;;;0.20;0.20;;;;;;;23.31;43.17;102552.16;5053047;28;20357;-81
2021/06/07 09:17:29;;;;;;;0.20;0.20;;;;;;;23.34;43.34;102548.44;5032721;28;20017;-80
2021/06/07 09:20:17;;;;;;;0.38;0.38;;;;;;;23.47;42.89;102552.31;5053310;28;20037;-80
2021/06/07 09:22:54;;;;;;;0.10;0.10;;;;;;;23.56;42.42;102548.28;5052922;28;20139;-80
2021/06/07 09:25:23;;;;;;;0.55;0.55;;;;;;;23.55;41.05;102557.34;5056125;28;20048;-80
2021/06/07 09:33:36;;;;;;;0.10;0.10;;;;;;;23.87;41.13;102558.50;5074832;27;20155;-81
2021/06/07 09:36:24;;;;;;;0.05;0.05;;;;;;;23.97;40.95;102553.53;5067521;28;20479;-81
2021/06/07 09:41:49;;;;;;;0.20;0.20;;;;;;;24.03;39.44;102549.66;5071966;27;20518;-80
2021/06/07 09:49:56;;;;;;;0.08;0.08;;;;;;;24.38;38.96;102552.41;5058878;28;20165;-84
2021/06/07 09:52:26;;;;;;;0.10;0.10;;;;;;;24.38;38.36;102555.13;5056022;28;20033;-83
2021/06/07 09:55:09;;;;;;;0.32;0.32;;;;;;;24.57;38.62;102556.88;5053397;28;20171;-84
2021/06/07 10:06:16;;;;;;;0.10;0.10;;;;;;;24.84;38.28;102560.84;5056942;28;20585;-81
2021/06/07 10:08:44;;;;;;;0.03;0.03;;;;;;;24.93;38.64;102553.19;5060470;28;20060;-87
2021/06/07 10:14:22;;;;;;;0.10;0.10;;;;;;;25.17;37.92;102551.88;5062782;27;20162;-79
2021/06/07 10:16:57;;;;;;;0.10;0.10;;;;;;;25.04;37.05;102550.78;5043434;28;20029;-82
2021/06/07 10:19:34;;;;;;;0.00;0.00;;;;;;;25.09;36.68;102558.66;5053915;28;20030;-85
2021/06/07 10:22:04;;;;;;;0.10;0.10;;;;;;;24.94;38.54;102552.25;5034386;28;20045;-86
2021/06/07 10:24:30;;;;;;;0.10;0.10;;;;;;;25.08;37.57;102552.34;5033426;28;20032;-83
2021/06/07 10:26:57;;;;;;;0.15;0.15;;;;;;;25.13;37.55;102550.25;5042262;28;20048;-83
2021/06/07 10:29:31;;;;;;;0.00;0.00;;;;;;;25.19;36.86;102544.50;5032832;28;20076;-85
2021/06/07 10:32:05;;;;;;;0.10;0.10;;;;;;;25.38;37.88;102548.06;5045621;28;20022;-82
2021/06/07 10:34:49;;;;;;;0.65;0.65;;;;;;;25.49;37.97;102551.06;5031035;28;20105;-85
2021/06/07 10:37:16;;;;;;;0.00;0.00;;;;;;;25.43;37.72;102554.09;5029077;28;20061;-84
2021/06/07 10:39:43;;;;;;;0.00;0.00;;;;;;;25.61;36.17;102541.31;5030107;28;20026;-85
2021/06/07 10:44:52;;;;;;;1.98;0.57;;;;;;;25.64;36.65;102541.16;5082390;27;20187;-82
2021/06/07 10:47:21;;;;;;;0.10;0.10;;;;;;;25.77;35.85;102544.03;5069991;28;20036;-85
2021/06/07 10:55:44;;;;;;;0.10;0.10;;;;;;;25.90;37.05;102555.94;5087440;27;20493;-94
2021/06/07 10:58:27;;;;;;;0.00;0.00;;;;;;;25.99;36.75;102543.66;5071160;28;20033;-96
2021/06/07 11:00:59;;;;;;;0.00;0.00;;;;;;;26.04;36.83;102538.84;5067927;28;20016;-93
2021/06/07 11:03:28;;;;;;;0.10;0.10;;;;;;;26.07;36.74;102533.28;5070687;28;20044;-83
2021/06/07 11:05:57;;;;;;;0.10;0.10;;;;;;;26.18;37.11;102523.59;5052157;28;20400;-86
2021/06/07 11:08:28;;;;;;;0.10;0.10;;;;;;;26.25;36.00;102528.56;5063698;28;20029;-89
2021/06/07 11:11:14;;;;;;;0.13;0.13;;;;;;;26.47;36.37;102532.72;5060096;28;20037;-81
2021/06/07 11:14:01;;;;;;;0.03;0.03;;;;;;;26.42;36.74;102524.84;5054770;28;20049;-89
2021/06/07 11:16:34;;;;;;;0.05;0.05;;;;;;;26.40;36.35;102524.03;5054824;28;20051;-85
2021/06/07 11:21:58;;;;;;;0.10;0.10;;;;;;;26.32;35.86;102524.50;5116790;27;20164;-82
2021/06/07 11:24:40;;;;;;;0.10;0.10;;;;;;;26.62;35.23;102522.75;5089006;28;20029;-81
2021/06/07 11:27:27;;;;;;;0.10;0.10;;;;;;;26.64;36.04;102526.22;5088889;28;20110;-81
2021/06/07 11:32:47;;;;;;;0.43;0.43;;;;;;;26.97;35.75;102522.41;5081626;27;20172;-80
2021/06/07 11:35:42;;;;;;;0.10;0.10;;;;;;;27.07;35.58;102520.84;5074980;28;20565;-80
2021/06/07 11:41:39;;;;;;;0.00;0.00;;;;;;;27.17;35.45;102510.25;5115490;27;20158;-81
2021/06/07 11:44:05;;;;;;;0.10;0.10;;;;;;;27.33;36.04;102515.56;5077888;28;20028;-81
2021/06/07 11:49:15;;;;;;;0.28;0.28;;;;;;;27.39;34.25;102509.72;5066679;28;20157;-81
2021/06/07 11:51:44;;;;;;;1.45;0.75;;;;;;;26.84;36.50;102505.09;5056184;28;20029;-81
2021/06/07 11:57:08;;;;;;;0.10;0.10;;;;;;;27.13;34.29;102512.28;5086535;28;20581;-81
2021/06/07 11:59:37;;;;;;;0.10;0.10;;;;;;;27.35;34.87;102499.13;5081988;28;20040;-80
2021/06/07 12:02:12;;;;;;;0.10;0.10;;;;;;;27.31;33.95;102503.91;5065597;28;20657;-80
2021/06/07 12:04:39;;;;;;;0.22;0.22;;;;;;;27.57;34.12;102495.91;5064027;28;20017;-82
2021/06/07 12:07:09;;;;;;;0.95;0.73;;;;;;;27.61;34.88;102486.56;5066380;28;20040;-81
2021/06/07 12:09:38;;;;;;;0.22;0.22;;;;;;;27.77;34.49;102491.84;5064184;28;20033;-82
2021/06/07 12:12:06;;;;;;;0.28;0.28;;;;;;;27.75;34.35;102489.25;5065313;28;20039;-82
2021/06/07 12:14:36;;;;;;;1.52;0.70;;;;;;;27.82;33.35;102489.69;5062517;28;20020;-82
2021/06/07 12:17:07;;;;;;;0.35;0.32;;;;;;;27.92;33.33;102489.94;5067177;28;20067;-82
2021/06/07 12:19:37;;;;;;;0.10;0.10;;;;;;;27.93;33.29;102489.81;5067167;28;20028;-82